Time;durP1;ratioP1;P1;durP2;ratioP2;P2;SDS_P1;SDS_P2;PMS_P1;PMS_P2;Temp;Humidity;BMP_temperature;BMP_pressure;BME280_temperature;BME280_humidity;BME280_pressure;Samples;Min_cycle;Max_cycle;Signal;HPM_P1;HPM_P2
2022/12/26 00:01:22;;;;;;;7.32;1.95;;;;;;;15.17;100.00;101946.53;2093655;28;20045;-75
2022/12/26 00:02:45;;;;;;;10.93;2.75;;;;;;;15.13;100.00;101944.72;2085813;28;20384;-74
2022/12/26 00:04:06;;;;;;;8.55;1.83;;;;;;;15.15;100.00;101945.66;2085210;28;20060;-74
2022/12/26 00:05:28;;;;;;;5.85;1.98;;;;;;;15.13;100.00;101953.59;2107648;28;20747;-74
2022/12/26 00:06:49;;;;;;;8.25;2.17;;;;;;;15.12;100.00;101949.16;2110462;28;20445;-75
2022/12/26 00:08:13;;;;;;;7.18;2.10;;;;;;;15.11;100.00;101959.75;2102348;28;20048;-75
2022/12/26 00:09:35;;;;;;;8.85;2.00;;;;;;;15.11;100.00;101950.00;2102112;28;20048;-74
2022/12/26 00:10:57;;;;;;;6.05;1.80;;;;;;;15.11;100.00;101957.09;2101951;28;20036;-74
2022/12/26 00:12:19;;;;;;;4.95;1.85;;;;;;;15.07;100.00;101958.81;2101662;28;20051;-75
2022/12/26 00:13:41;;;;;;;6.13;1.60;;;;;;;15.02;100.00;101949.88;2101872;28;20111;-74
2022/12/26 00:15:04;;;;;;;7.00;1.92;;;;;;;15.01;100.00;101963.16;2093936;28;20106;-75
2022/12/26 00:16:26;;;;;;;6.82;1.98;;;;;;;15.02;100.00;101959.63;2090982;28;20044;-74
2022/12/26 00:17:48;;;;;;;7.05;1.98;;;;;;;15.03;100.00;101962.28;2099132;28;20051;-74
2022/12/26 00:19:11;;;;;;;5.10;1.63;;;;;;;15.06;100.00;101961.44;2096021;28;20082;-74
2022/12/26 00:20:32;;;;;;;8.90;2.03;;;;;;;15.03;100.00;101958.75;2101724;28;20140;-75
2022/12/26 00:21:56;;;;;;;9.38;2.35;;;;;;;15.00;100.00;101951.59;2101784;28;20563;-74
2022/12/26 00:23:19;;;;;;;4.70;1.77;;;;;;;14.99;100.00;101947.16;2110744;28;20479;-75
2022/12/26 00:24:41;;;;;;;5.53;1.50;;;;;;;14.98;100.00;101947.13;2104081;28;20066;-75
2022/12/26 00:26:03;;;;;;;6.20;1.70;;;;;;;14.97;100.00;101943.56;2101920;28;20105;-79
2022/12/26 00:27:25;;;;;;;8.70;2.25;;;;;;;14.97;100.00;101951.53;2102162;28;20082;-75
2022/12/26 00:28:47;;;;;;;6.15;1.58;;;;;;;15.00;100.00;101954.25;2096133;28;20476;-75
2022/12/26 00:30:10;;;;;;;6.75;1.65;;;;;;;15.03;100.00;101950.78;2099285;28;20889;-74
2022/12/26 00:31:33;;;;;;;4.75;1.52;;;;;;;15.06;100.00;101962.34;2101942;28;20056;-75
2022/12/26 00:32:55;;;;;;;8.93;2.10;;;;;;;15.10;100.00;101966.84;2093750;28;20090;-75
2022/12/26 00:34:18;;;;;;;6.43;2.08;;;;;;;15.14;100.00;101966.03;2098875;28;20040;-75
2022/12/26 00:35:39;;;;;;;4.80;1.83;;;;;;;15.18;100.00;101972.28;2104741;28;20044;-74
2022/12/26 00:37:02;;;;;;;6.93;1.95;;;;;;;15.19;100.00;101970.50;2099994;28;20044;-74
2022/12/26 00:38:24;;;;;;;8.70;2.50;;;;;;;15.18;100.00;101971.38;2104353;28;20169;-75
2022/12/26 00:39:47;;;;;;;9.38;2.25;;;;;;;15.16;100.00;101964.28;2102036;28;20052;-74
2022/12/26 00:41:09;;;;;;;10.88;2.42;;;;;;;15.13;100.00;101960.69;2101572;28;20763;-75
2022/12/26 00:42:31;;;;;;;6.55;1.80;;;;;;;15.09;100.00;101962.41;2104712;28;20051;-75
2022/12/26 00:43:53;;;;;;;5.95;1.90;;;;;;;15.08;100.00;101967.69;2087397;28;20703;-75
2022/12/26 00:45:15;;;;;;;8.00;2.38;;;;;;;15.05;100.00;101965.88;2098663;28;20048;-75
2022/12/26 00:46:38;;;;;;;9.15;2.35;;;;;;;15.05;100.00;101963.22;2096431;28;20032;-75
2022/12/26 00:47:59;;;;;;;8.23;2.55;;;;;;;15.03;100.00;101929.50;2107586;28;20098;-74
2022/12/26 00:49:22;;;;;;;9.95;2.70;;;;;;;15.00;100.00;101954.25;2107088;28;20397;-75
2022/12/26 00:50:43;;;;;;;10.00;2.50;;;;;;;15.00;100.00;101950.72;2108670;28;20048;-75
2022/12/26 00:52:05;;;;;;;9.38;3.22;;;;;;;14.98;100.00;101948.03;2108504;28;20097;-75
2022/12/26 00:53:28;;;;;;;8.68;2.45;;;;;;;14.96;100.00;101944.47;2106807;28;20048;-75
2022/12/26 00:54:51;;;;;;;7.68;2.78;;;;;;;14.95;100.00;101942.66;2101955;28;20075;-75
2022/12/26 00:56:12;;;;;;;7.43;2.40;;;;;;;14.97;100.00;101946.22;2101638;28;20060;-75
2022/12/26 00:57:34;;;;;;;7.20;2.78;;;;;;;15.01;100.00;101931.22;2103793;28;20043;-75
2022/12/26 00:58:57;;;;;;;7.35;2.60;;;;;;;15.06;100.00;101945.50;2101771;28;20048;-75
2022/12/26 01:00:18;;;;;;;8.63;3.13;;;;;;;15.08;100.00;101955.28;2083095;28;20417;-75
2022/12/26 01:01:41;;;;;;;9.98;2.67;;;;;;;15.07;100.00;101955.25;2095037;28;20054;-75
2022/12/26 01:03:02;;;;;;;11.15;2.65;;;;;;;15.07;100.00;101957.91;2099604;28;20052;-75
2022/12/26 01:04:24;;;;;;;9.02;2.83;;;;;;;15.07;100.00;101947.28;2112725;28;20078;-74
2022/12/26 01:05:48;;;;;;;9.25;2.30;;;;;;;15.05;100.00;101955.22;2118712;28;20035;-75
2022/12/26 01:07:10;;;;;;;8.82;2.78;;;;;;;15.04;100.00;101960.50;2111956;28;20167;-74
2022/12/26 01:08:34;;;;;;;6.05;2.30;;;;;;;15.03;100.00;101961.41;2100906;28;20052;-74
2022/12/26 01:09:56;;;;;;;9.50;2.35;;;;;;;15.03;100.00;101970.25;2102159;28;20447;-75
2022/12/26 01:11:38;;;;;;;9.05;2.88;;;;;;;15.02;100.00;101973.81;2097822;28;20059;-75
2022/12/26 01:13:00;;;;;;;12.52;2.88;;;;;;;15.02;100.00;101981.78;2105755;28;20048;-75
2022/12/26 01:14:22;;;;;;;12.68;3.13;;;;;;;15.02;100.00;101987.09;2105800;28;20051;-75
2022/12/26 01:15:48;;;;;;;11.25;2.72;;;;;;;15.03;100.00;101980.03;2094872;28;20602;-75
2022/12/26 01:17:11;;;;;;;10.40;2.85;;;;;;;15.03;100.00;101991.53;2103646;28;20753;-74
2022/12/26 01:18:34;;;;;;;9.73;2.83;;;;;;;15.07;100.00;101989.84;2103170;28;20067;-75
2022/12/26 01:19:56;;;;;;;11.93;2.83;;;;;;;15.10;100.00;102004.06;2107021;28;20040;-74
2022/12/26 01:21:18;;;;;;;8.20;2.47;;;;;;;15.11;100.00;102000.53;2103140;28;20048;-74
2022/12/26 01:22:41;;;;;;;6.88;2.47;;;;;;;15.12;100.00;102002.34;2111749;28;20050;-75
2022/12/26 01:24:06;;;;;;;8.15;2.45;;;;;;;15.11;100.00;102005.88;2105717;28;20117;-74
2022/12/26 01:25:29;;;;;;;9.27;2.80;;;;;;;15.11;100.00;102000.53;2111934;28;20036;-75
2022/12/26 01:26:52;;;;;;;10.40;3.40;;;;;;;15.12;100.00;101998.78;2105820;28;20423;-75
2022/12/26 01:28:13;;;;;;;11.13;2.70;;;;;;;15.14;100.00;101989.97;2098566;28;20066;-75
2022/12/26 01:29:35;;;;;;;5.57;2.47;;;;;;;15.18;100.00;102005.97;2102316;28;20040;-74
2022/12/26 01:31:02;;;;;;;12.75;2.75;;;;;;;15.20;100.00;102002.47;2097276;28;20512;-74
2022/12/26 01:32:23;;;;;;;6.53;2.05;;;;;;;15.20;100.00;102001.56;2087538;28;20060;-74
2022/12/26 01:33:46;;;;;;;14.02;2.85;;;;;;;15.18;100.00;102016.59;2097131;28;20044;-74
2022/12/26 01:35:08;;;;;;;10.80;2.80;;;;;;;15.13;100.00;102003.25;2097422;28;20145;-75
2022/12/26 01:36:32;;;;;;;11.95;2.60;;;;;;;15.10;100.00;102001.41;2101617;28;20083;-74
2022/12/26 01:37:54;;;;;;;11.65;2.70;;;;;;;15.08;100.00;102003.16;2092317;28;20052;-74
2022/12/26 01:39:19;;;;;;;8.00;2.60;;;;;;;15.09;100.00;101999.66;2103115;27;20044;-75
2022/12/26 01:40:42;;;;;;;10.82;2.50;;;;;;;15.12;100.00;102006.75;2114299;28;20412;-76
2022/12/26 01:42:11;;;;;;;14.00;3.58;;;;;;;15.11;100.00;101994.31;2094265;28;20136;-75
2022/12/26 01:43:50;;;;;;;10.35;2.47;;;;;;;15.09;100.00;101998.75;2108399;28;20108;-75
2022/12/26 01:45:27;;;;;;;6.28;2.78;;;;;;;15.05;100.00;102000.44;2105339;28;20392;-75
2022/12/26 01:46:50;;;;;;;8.90;2.42;;;;;;;15.02;100.00;102000.41;2097774;28;20118;-75
2022/12/26 01:48:20;;;;;;;8.48;2.30;;;;;;;14.98;100.00;101997.66;2108892;28;20333;-75
2022/12/26 01:49:45;;;;;;;9.18;2.70;;;;;;;14.94;100.00;101999.38;2104104;28;20044;-75
2022/12/26 01:51:08;;;;;;;10.93;2.80;;;;;;;14.88;100.00;101996.59;2099691;28;20059;-74
2022/12/26 01:52:35;;;;;;;7.25;2.40;;;;;;;14.85;100.00;101995.63;2100739;28;20047;-76
2022/12/26 01:54:02;;;;;;;7.05;2.53;;;;;;;14.86;100.00;102002.75;2095005;28;20035;-75
2022/12/26 01:55:28;;;;;;;8.27;2.53;;;;;;;14.85;100.00;101987.66;2102867;28;20048;-75
2022/12/26 01:56:52;;;;;;;9.60;2.97;;;;;;;14.84;100.00;101994.75;2103452;28;20479;-75
2022/12/26 01:58:20;;;;;;;9.57;2.80;;;;;;;14.83;100.00;101992.09;2094718;28;20052;-75
2022/12/26 01:59:43;;;;;;;5.35;2.30;;;;;;;14.84;100.00;102001.81;2095045;28;20036;-74
2022/12/26 02:01:08;;;;;;;9.23;2.63;;;;;;;14.82;100.00;102001.81;2098105;28;20093;-75
2022/12/26 02:05:32;;;;;;;8.65;2.60;;;;;;;14.82;100.00;102007.13;2100699;28;20408;-75
2022/12/26 02:05:58;;;;;;;8.65;3.40;;;;;;;14.80;100.00;102023.91;2113993;28;20047;-75
2022/12/26 02:07:20;;;;;;;6.00;2.88;;;;;;;14.81;100.00;102018.63;2108674;28;20044;-75
2022/12/26 02:08:45;;;;;;;;;;;;;;;14.75;100.00;102019.41;2098352;28;20097;-75
2022/12/26 02:10:10;;;;;;;7.43;2.75;;;;;;;14.75;100.00;102021.19;2107021;28;20409;-75
2022/12/26 02:11:38;;;;;;;5.93;2.33;;;;;;;14.76;100.00;102015.00;2101746;28;20055;-75
2022/12/26 02:13:00;;;;;;;8.77;2.55;;;;;;;14.79;100.00;102016.78;2110081;28;20054;-75
2022/12/26 02:14:23;;;;;;;7.53;2.75;;;;;;;14.80;100.00;102014.19;2110333;28;20071;-75
2022/12/26 02:15:46;;;;;;;11.27;3.28;;;;;;;14.81;100.00;102007.09;2103271;28;20052;-75
2022/12/26 02:17:07;;;;;;;8.18;2.97;;;;;;;14.81;100.00;102010.66;2102842;28;20585;-75
2022/12/26 02:18:29;;;;;;;7.88;2.53;;;;;;;14.84;100.00;102004.47;2105620;28;20056;-75
2022/12/26 02:20:02;;;;;;;8.50;2.72;;;;;;;14.88;100.00;102007.25;2102205;28;20044;-75
2022/12/26 02:21:58;;;;;;;10.15;3.13;;;;;;;14.92;100.00;102011.72;2097615;28;20052;-75
2022/12/26 02:23:48;;;;;;;12.18;3.00;;;;;;;14.93;100.00;102002.91;2105097;28;20043;-75
2022/12/26 02:25:35;;;;;;;7.53;2.65;;;;;;;14.88;100.00;102012.56;2105397;28;20069;-75
2022/12/26 02:27:21;;;;;;;9.82;3.10;;;;;;;14.86;100.00;101994.78;2096060;28;20048;-75
2022/12/26 02:29:01;;;;;;;9.40;3.03;;;;;;;14.86;100.00;102010.72;2100583;28;20040;-75
2022/12/26 02:30:39;;;;;;;8.02;2.40;;;;;;;14.80;100.00;102003.53;2110646;28;20096;-75
2022/12/26 02:32:10;;;;;;;8.32;3.03;;;;;;;14.78;100.00;101999.94;2108590;28;20585;-75
2022/12/26 02:33:55;;;;;;;5.97;1.98;;;;;;;14.73;100.00;101991.00;2104146;28;20934;-74
2022/12/26 02:35:26;;;;;;;4.40;1.90;;;;;;;14.72;100.00;101994.53;2122522;27;20383;-75
2022/12/26 02:37:14;;;;;;;8.60;2.47;;;;;;;14.75;100.00;102000.81;2101584;28;20032;-75
2022/12/26 02:38:46;;;;;;;5.85;2.70;;;;;;;14.75;100.00;101998.16;2112182;28;20538;-75
2022/12/26 02:40:30;;;;;;;10.80;2.63;;;;;;;14.77;100.00;101999.94;2109704;28;20101;-74
2022/12/26 02:42:01;;;;;;;7.68;2.67;;;;;;;14.81;100.00;102004.44;2104830;28;20373;-75
2022/12/26 02:43:33;;;;;;;8.00;2.58;;;;;;;14.83;100.00;101995.63;2097090;28;20063;-75
2022/12/26 02:47:03;;;;;;;7.20;3.35;;;;;;;14.81;100.00;102010.66;2100676;28;19920;-75
2022/12/26 02:48:36;;;;;;;12.20;3.20;;;;;;;14.79;100.00;102022.13;2110824;28;20117;-75
2022/12/26 03:14:37;;;;;;;9.27;2.60;;;;;;;14.71;100.00;102025.53;2098142;28;20071;-75
2022/12/26 03:17:48;;;;;;;11.43;2.63;;;;;;;14.62;100.00;102033.34;2096346;28;20439;-75
2022/12/26 03:19:13;;;;;;;9.35;2.17;;;;;;;14.63;100.00;102029.81;2093056;28;20072;-75
2022/12/26 03:20:36;;;;;;;5.18;2.20;;;;;;;14.64;100.00;102034.25;2100247;28;20044;-75
2022/12/26 03:22:29;;;;;;;7.40;2.25;;;;;;;14.62;100.00;102030.69;2102293;28;20653;-75
2022/12/26 03:23:47;;;;;;;8.55;2.05;;;;;;;14.60;100.00;102040.38;2112367;28;20417;-75
2022/12/26 03:26:53;;;;;;;5.90;2.30;;;;;;;14.58;100.00;102044.75;2104548;28;20071;-75
2022/12/26 03:28:16;;;;;;;6.50;2.08;;;;;;;14.59;100.00;102043.91;2093044;28;20049;-75
2022/12/26 03:31:17;;;;;;;7.82;2.72;;;;;;;14.59;100.00;102050.97;2104722;28;20059;-75
2022/12/26 03:32:44;;;;;;;7.03;2.50;;;;;;;14.59;100.00;102048.31;2098252;28;20167;-76
2022/12/26 03:34:19;;;;;;;8.65;2.45;;;;;;;14.58;100.00;102046.50;2094054;28;20400;-75
2022/12/26 03:35:41;;;;;;;7.55;2.58;;;;;;;14.59;100.00;102045.66;2102775;28;20165;-76
2022/12/26 03:37:28;;;;;;;6.18;2.47;;;;;;;14.58;100.00;102049.16;2099485;28;20041;-76
2022/12/26 03:38:57;;;;;;;7.50;2.22;;;;;;;14.54;100.00;102039.34;2096627;28;20083;-75
2022/12/26 04:20:06;;;;;;;8.40;3.35;;;;;;;14.52;100.00;102086.25;2096459;28;20063;-75
2022/12/26 04:44:11;;;;;;;9.25;4.10;;;;;;;14.59;100.00;102102.38;2101468;28;20723;-75
2022/12/26 04:45:33;;;;;;;9.45;3.30;;;;;;;14.64;100.00;102099.78;2094987;28;20051;-75
2022/12/26 04:46:57;;;;;;;11.43;4.28;;;;;;;14.67;100.00;102106.09;2104556;28;20060;-75
2022/12/26 04:50:13;;;;;;;14.35;3.70;;;;;;;14.70;100.00;102099.94;2104127;28;20810;-75
2022/12/26 04:51:38;;;;;;;10.45;4.00;;;;;;;14.73;100.00;102100.00;2113164;28;20106;-74
2022/12/26 04:52:59;;;;;;;10.43;4.25;;;;;;;14.77;100.00;102103.63;2110569;28;20457;-75
2022/12/26 04:54:22;;;;;;;8.80;4.10;;;;;;;14.75;100.00;102098.28;2103122;28;20044;-75
2022/12/26 04:55:43;;;;;;;7.45;3.58;;;;;;;14.75;100.00;102117.78;2094091;28;20416;-75
2022/12/26 04:57:06;;;;;;;9.25;4.53;;;;;;;14.75;100.00;102120.44;2101803;28;20813;-75
2022/12/26 04:58:29;;;;;;;11.10;4.47;;;;;;;14.72;100.00;102119.47;2110646;28;20399;-75
2022/12/26 04:59:50;;;;;;;;;;;;;;;14.64;100.00;102119.31;2112405;28;20039;-75
2022/12/26 05:09:36;;;;;;;10.75;3.60;;;;;;;14.54;100.00;102119.09;2114368;28;20131;-75
2022/12/26 05:10:57;;;;;;;9.23;3.53;;;;;;;14.51;100.00;102119.91;2104201;28;20080;-75
2022/12/26 05:12:20;;;;;;;7.35;3.28;;;;;;;14.52;100.00;102118.16;2103201;28;20048;-75
2022/12/26 05:13:42;;;;;;;10.15;3.78;;;;;;;14.54;100.00;102111.13;2104800;28;20051;-75
2022/12/26 05:15:05;;;;;;;9.10;4.20;;;;;;;14.53;100.00;102111.97;2103135;28;20043;-75
2022/12/26 05:28:43;;;;;;;8.48;3.75;;;;;;;14.48;100.00;102124.28;2077986;28;20049;-75
2022/12/26 05:30:06;;;;;;;7.97;4.15;;;;;;;14.46;100.00;102139.28;2075138;28;20053;-75
2022/12/26 05:31:29;;;;;;;11.43;4.63;;;;;;;14.45;100.00;102141.03;2091178;28;20466;-75
2022/12/26 05:34:30;;;;;;;7.55;4.25;;;;;;;14.48;100.00;102145.53;2088802;28;20037;-74
2022/12/26 05:35:53;;;;;;;8.40;4.05;;;;;;;14.50;100.00;102149.13;2088951;28;20755;-75
2022/12/26 05:37:14;;;;;;;9.45;4.78;;;;;;;14.51;100.00;102156.22;2098670;28;20040;-75
2022/12/26 05:38:39;;;;;;;8.20;3.75;;;;;;;14.52;100.00;102156.25;2117050;27;20046;-74
2022/12/26 05:40:01;;;;;;;8.35;3.40;;;;;;;14.54;100.00;102157.19;2100273;28;20709;-75
2022/12/26 05:41:23;;;;;;;8.35;3.88;;;;;;;14.57;100.00;102154.59;2111344;27;20047;-74
2022/12/26 05:42:45;;;;;;;10.00;4.03;;;;;;;14.59;100.00;102162.59;2103966;28;20549;-75
2022/12/26 05:44:09;;;;;;;8.45;3.10;;;;;;;14.59;100.00;102167.91;2113837;27;20051;-75
2022/12/26 05:45:31;;;;;;;9.90;3.72;;;;;;;14.57;100.00;102159.03;2106547;28;20404;-75
2022/12/26 05:46:53;;;;;;;8.48;3.25;;;;;;;14.55;100.00;102166.97;2119572;27;20043;-74
2022/12/26 05:48:14;;;;;;;7.63;3.20;;;;;;;14.56;100.00;102162.53;2113952;28;20043;-75
2022/12/26 05:49:37;;;;;;;6.68;3.10;;;;;;;14.57;100.00;102151.06;2110087;28;20062;-74
2022/12/26 05:50:59;;;;;;;5.85;2.88;;;;;;;14.59;100.00;102151.97;2111360;28;20056;-75
2022/12/26 05:52:21;;;;;;;12.90;3.22;;;;;;;14.63;100.00;102149.44;2109702;28;20040;-75
2022/12/26 05:53:47;;;;;;;7.40;3.10;;;;;;;14.66;100.00;102149.47;2111213;28;20044;-74
2022/12/26 05:55:09;;;;;;;7.85;3.65;;;;;;;14.66;100.00;102144.16;2104903;28;20040;-75
2022/12/26 05:56:33;;;;;;;7.60;3.28;;;;;;;14.65;100.00;102147.69;2110120;28;20032;-75
2022/12/26 05:57:54;;;;;;;6.35;3.33;;;;;;;14.63;100.00;102151.19;2105723;28;20068;-75
2022/12/26 05:59:16;;;;;;;9.93;3.22;;;;;;;14.62;100.00;102158.25;2094380;28;20060;-75
2022/12/26 06:00:37;;;;;;;8.30;3.22;;;;;;;14.66;100.00;102159.22;2096119;28;20048;-75
2022/12/26 06:02:00;;;;;;;7.78;3.42;;;;;;;14.65;100.00;102162.72;2094402;28;20079;-75
2022/12/26 06:03:21;;;;;;;8.77;2.85;;;;;;;14.66;100.00;102164.53;2096956;28;20048;-75
2022/12/26 06:04:43;;;;;;;9.43;2.95;;;;;;;14.64;100.00;102158.28;2106135;28;20044;-75
2022/12/26 06:06:05;;;;;;;9.23;3.05;;;;;;;14.62;100.00;102160.91;2109239;28;20130;-75
2022/12/26 06:07:27;;;;;;;8.40;2.88;;;;;;;14.61;100.00;102166.19;2109614;28;20138;-75
2022/12/26 06:08:52;;;;;;;7.75;3.25;;;;;;;14.59;100.00;102167.91;2113845;28;20044;-75
2022/12/26 06:10:14;;;;;;;5.00;2.53;;;;;;;14.59;100.00;102162.59;2112640;28;20043;-75
2022/12/26 06:11:36;;;;;;;7.38;3.15;;;;;;;14.61;100.00;102155.56;2103954;28;20051;-75
2022/12/26 06:13:00;;;;;;;6.70;2.50;;;;;;;14.66;100.00;102151.22;2101449;28;20032;-74
2022/12/26 06:14:23;;;;;;;6.15;2.17;;;;;;;14.70;100.00;102156.63;2115114;27;20075;-75
2022/12/26 06:15:44;;;;;;;7.05;2.88;;;;;;;14.75;100.00;102154.09;2110739;28;20408;-75
2022/12/26 06:17:06;;;;;;;7.68;2.88;;;;;;;14.78;100.00;102148.81;2109736;28;20055;-75
2022/12/26 06:18:28;;;;;;;7.68;2.67;;;;;;;14.81;100.00;102164.84;2111125;28;20035;-76
2022/12/26 06:19:50;;;;;;;10.20;4.05;;;;;;;14.82;100.00;102161.34;2109288;28;20063;-75
2022/12/26 06:21:15;;;;;;;10.25;4.35;;;;;;;14.86;100.00;102162.28;2102359;28;20059;-75
2022/12/26 06:22:36;;;;;;;7.45;4.00;;;;;;;15.00;100.00;102166.13;2109470;28;20059;-75
2022/12/26 06:24:00;;;;;;;6.68;3.10;;;;;;;15.15;100.00;102172.66;2119406;27;20350;-74
2022/12/26 06:25:25;;;;;;;8.20;3.63;;;;;;;15.32;100.00;102167.66;2097204;28;20056;-75
2022/12/26 06:26:48;;;;;;;8.77;3.33;;;;;;;15.42;100.00;102169.63;2106124;28;20036;-75
2022/12/26 06:28:09;;;;;;;7.28;2.63;;;;;;;15.45;100.00;102185.63;2107644;28;20427;-75
2022/12/26 06:29:32;;;;;;;12.13;3.05;;;;;;;15.38;100.00;102182.81;2101324;28;20127;-75
2022/12/26 06:30:53;;;;;;;8.40;3.63;;;;;;;15.32;100.00;102191.59;2096803;28;20048;-75
2022/12/26 06:32:15;;;;;;;5.60;2.65;;;;;;;15.30;100.00;102188.00;2101673;28;20114;-76
2022/12/26 06:33:38;;;;;;;5.82;1.88;;;;;;;15.40;100.00;102189.97;2109279;28;20044;-75
2022/12/26 06:34:59;;;;;;;4.72;1.63;;;;;;;15.56;100.00;102201.81;2105560;28;20060;-74
2022/12/26 06:36:23;;;;;;;8.35;4.15;;;;;;;15.71;100.00;102201.22;2088347;28;20049;-74
2022/12/26 06:37:45;;;;;;;28.33;14.98;;;;;;;15.83;99.67;102201.41;2093943;28;20449;-74
2022/12/26 06:39:10;;;;;;;54.88;29.27;;;;;;;15.95;96.15;102213.19;2096232;28;20052;-74
2022/12/26 06:40:32;;;;;;;14.40;6.45;;;;;;;16.06;93.59;102205.38;2098756;28;20056;-75
2022/12/26 06:41:54;;;;;;;7.13;2.50;;;;;;;16.16;93.33;102212.63;2102805;28;20127;-75
2022/12/26 06:43:16;;;;;;;6.25;2.15;;;;;;;16.26;93.17;102217.25;2096440;28;20063;-75
2022/12/26 06:44:38;;;;;;;4.85;1.83;;;;;;;16.36;92.63;102218.28;2096874;28;20067;-75
2022/12/26 06:46:02;;;;;;;5.47;2.20;;;;;;;16.37;93.48;102216.50;2094211;28;20040;-75
2022/12/26 06:47:23;;;;;;;8.13;2.40;;;;;;;16.40;95.33;102221.91;2094290;28;20635;-75
2022/12/26 06:48:45;;;;;;;7.95;2.78;;;;;;;16.41;96.42;102211.25;2093835;28;20517;-75
2022/12/26 06:50:07;;;;;;;8.68;3.95;;;;;;;16.35;98.55;102233.38;2096717;28;20052;-75
2022/12/26 06:51:29;;;;;;;9.40;4.32;;;;;;;16.31;100.00;102231.53;2091035;28;20048;-75
2022/12/26 06:52:51;;;;;;;9.30;3.67;;;;;;;16.39;100.00;102234.34;2096827;28;20049;-75
2022/12/26 06:54:15;;;;;;;5.65;2.35;;;;;;;16.45;100.00;102233.53;2086013;28;20672;-75
2022/12/26 06:55:36;;;;;;;7.57;4.07;;;;;;;16.45;100.00;102222.84;2100544;28;20056;-75
2022/12/26 06:56:59;;;;;;;7.30;3.13;;;;;;;16.48;100.00;102239.78;2096636;28;20132;-75
2022/12/26 06:58:20;;;;;;;8.10;3.30;;;;;;;16.57;100.00;102233.69;2088517;28;20059;-75
2022/12/26 06:59:43;;;;;;;8.45;2.45;;;;;;;16.66;100.00;102233.88;2091150;28;20041;-74
2022/12/26 07:01:04;;;;;;;3.78;2.40;;;;;;;16.73;93.72;102255.34;2092445;28;20068;-73
2022/12/26 07:02:27;;;;;;;5.45;2.55;;;;;;;16.78;91.41;102246.50;2099638;28;20056;-74
2022/12/26 07:03:50;;;;;;;7.72;3.88;;;;;;;16.86;91.88;102247.50;2101945;28;20048;-75
2022/12/26 07:05:12;;;;;;;4.72;2.78;;;;;;;16.96;91.98;102238.72;2093825;28;20063;-74
2022/12/26 07:06:37;;;;;;;7.68;3.35;;;;;;;17.08;92.32;102252.22;2091662;28;20409;-75
2022/12/26 07:07:58;;;;;;;7.18;3.47;;;;;;;17.21;91.66;102256.84;2099547;28;20036;-74
2022/12/26 07:09:22;;;;;;;7.07;3.45;;;;;;;17.31;90.21;102258.75;2102200;28;20516;-74
2022/12/26 07:10:44;;;;;;;6.10;3.38;;;;;;;17.42;89.07;102264.22;2102461;28;20066;-74
2022/12/26 07:12:06;;;;;;;9.02;5.03;;;;;;;17.52;89.75;102268.78;2096295;28;20063;-74
2022/12/26 07:13:29;;;;;;;9.25;4.88;;;;;;;17.61;91.50;102271.59;2094053;28;20052;-74
2022/12/26 07:14:50;;;;;;;8.88;5.00;;;;;;;17.69;92.66;102272.56;2098566;28;20066;-75
2022/12/26 07:16:14;;;;;;;8.05;5.32;;;;;;;17.61;94.25;102282.28;2096637;28;20055;-74
2022/12/26 07:17:37;;;;;;;9.48;3.90;;;;;;;17.43;92.92;102290.03;2102439;28;20056;-75
2022/12/26 07:18:59;;;;;;;9.75;5.03;;;;;;;17.18;91.54;102279.94;2105435;28;20455;-75
2022/12/26 07:20:21;;;;;;;9.60;4.07;;;;;;;17.02;91.93;102290.41;2099297;28;20089;-74
2022/12/26 07:21:44;;;;;;;8.40;3.47;;;;;;;17.06;87.44;102283.34;2108048;28;20069;-74
2022/12/26 07:23:05;;;;;;;3.83;2.30;;;;;;;17.17;85.36;102303.06;2110392;28;20051;-74
2022/12/26 07:24:30;;;;;;;8.98;5.60;;;;;;;17.23;83.44;102295.13;2110507;28;20131;-74
2022/12/26 07:25:53;;;;;;;8.35;3.30;;;;;;;17.19;82.71;102289.75;2102588;28;20082;-74
2022/12/26 07:27:15;;;;;;;5.78;2.90;;;;;;;17.04;83.49;102287.75;2116203;27;20479;-74
2022/12/26 07:28:38;;;;;;;6.65;3.03;;;;;;;16.97;85.69;102300.13;2098729;28;20040;-75
2022/12/26 07:29:59;;;;;;;6.68;3.63;;;;;;;16.96;86.02;102284.97;2103908;28;20660;-75
2022/12/26 07:31:21;;;;;;;9.23;2.83;;;;;;;16.87;85.52;102292.84;2093947;28;20100;-74
2022/12/26 07:32:44;;;;;;;6.45;3.17;;;;;;;16.90;87.25;102294.66;2101869;28;20040;-75
2022/12/26 07:34:05;;;;;;;9.10;4.18;;;;;;;17.06;87.93;102302.03;2102444;28;20085;-75
2022/12/26 07:35:28;;;;;;;8.18;4.88;;;;;;;17.21;88.79;102298.66;2107914;28;20570;-74
2022/12/26 07:36:50;;;;;;;7.68;4.00;;;;;;;17.22;85.93;102296.00;2108318;28;20094;-74
2022/12/26 07:38:12;;;;;;;7.05;2.70;;;;;;;17.08;85.01;102286.91;2113516;28;20043;-75
2022/12/26 07:39:37;;;;;;;6.57;3.22;;;;;;;17.10;85.38;102303.84;2108956;28;20136;-74
2022/12/26 07:41:56;;;;;;;6.20;3.03;;;;;;;17.22;84.04;102298.66;2097849;28;20043;-75
2022/12/26 07:42:41;;;;;;;6.95;2.88;;;;;;;17.32;79.20;102300.59;2119882;27;20027;-76
2022/12/26 07:44:04;;;;;;;5.55;2.72;;;;;;;17.34;79.84;102305.94;2113077;28;20101;-75
2022/12/26 07:45:27;;;;;;;9.63;3.30;;;;;;;17.32;79.58;102295.25;2107501;28;20083;-75
2022/12/26 07:46:52;;;;;;;9.25;3.80;;;;;;;17.23;81.87;102311.16;2103820;28;20530;-75
2022/12/26 07:48:14;;;;;;;11.38;4.25;;;;;;;17.25;84.67;102304.06;2095035;28;20158;-75
2022/12/26 07:49:36;;;;;;;9.05;2.90;;;;;;;17.35;85.70;102310.41;2093986;28;20048;-77
2022/12/26 07:51:02;;;;;;;7.68;3.47;;;;;;;17.47;84.89;102295.44;2107093;28;20047;-75
2022/12/26 07:52:25;;;;;;;6.53;3.40;;;;;;;17.59;84.29;102315.16;2106324;28;20424;-76
2022/12/26 07:53:47;;;;;;;6.80;3.95;;;;;;;17.51;82.84;102315.97;2113629;27;20046;-76
2022/12/26 07:55:11;;;;;;;8.27;4.38;;;;;;;17.35;82.34;102327.31;2110699;28;20488;-75
2022/12/26 07:56:32;;;;;;;8.35;3.50;;;;;;;17.23;83.82;102332.50;2116946;27;20054;-76
2022/12/26 07:57:55;;;;;;;6.82;2.88;;;;;;;17.12;86.14;102320.78;2104390;28;20040;-76
2022/12/26 07:59:18;;;;;;;6.70;4.07;;;;;;;17.02;88.44;102326.84;2099289;28;20527;-77
2022/12/26 08:00:39;;;;;;;8.75;3.65;;;;;;;16.92;90.27;102343.63;2098983;28;20033;-76
2022/12/26 08:02:03;;;;;;;8.45;3.25;;;;;;;16.85;92.09;102344.41;2096094;28;20128;-77
2022/12/26 08:03:24;;;;;;;14.52;3.08;;;;;;;16.78;94.10;102350.50;2091586;28;20724;-77
2022/12/26 08:04:47;;;;;;;7.47;4.60;;;;;;;16.73;94.62;102350.44;2092899;28;20078;-77
2022/12/26 08:06:09;;;;;;;6.63;3.78;;;;;;;16.68;94.21;102346.78;2086072;28;20041;-76
2022/12/26 08:07:31;;;;;;;;;;;;;;;16.69;94.27;102344.16;2087276;28;20037;-76
2022/12/26 08:08:54;;;;;;;7.57;3.10;;;;;;;16.66;93.86;102352.13;2091173;28;19955;-76
2022/12/26 08:10:18;;;;;;;8.20;3.22;;;;;;;16.63;93.11;102352.06;2110640;28;20055;-76
2022/12/26 08:11:39;;;;;;;6.93;3.90;;;;;;;16.61;93.46;102352.88;2098857;28;20063;-75
2022/12/26 08:13:02;;;;;;;7.20;4.05;;;;;;;16.70;94.69;102353.06;2085123;28;20049;-76
2022/12/26 08:14:25;;;;;;;5.95;2.78;;;;;;;16.98;95.65;102349.03;2105633;28;20050;-75
2022/12/26 08:15:46;;;;;;;5.55;3.28;;;;;;;17.31;94.63;102337.94;2095561;28;20079;-75
2022/12/26 08:17:09;;;;;;;6.45;2.30;;;;;;;17.61;93.18;102341.03;2115830;28;20113;-76
2022/12/26 08:18:30;;;;;;;6.10;1.60;;;;;;;17.86;91.49;102336.84;2098021;28;20500;-75
2022/12/26 08:19:52;;;;;;;4.07;2.20;;;;;;;18.17;90.87;102330.97;2101964;28;20044;-75
2022/12/26 08:21:14;;;;;;;7.65;4.22;;;;;;;18.50;89.99;102343.75;2105002;28;20055;-76
2022/12/26 08:22:36;;;;;;;8.50;3.88;;;;;;;18.70;90.22;102333.25;2110554;27;20487;-76
2022/12/26 08:23:57;;;;;;;8.20;2.40;;;;;;;18.91;91.00;102341.41;2104215;28;20851;-77
2022/12/26 08:25:21;;;;;;;5.13;2.10;;;;;;;19.14;89.56;102332.63;2100748;28;20062;-76
2022/12/26 08:26:44;;;;;;;4.57;1.63;;;;;;;19.32;89.12;102332.72;2109403;28;20062;-76
2022/12/26 08:28:06;;;;;;;4.50;1.60;;;;;;;19.45;87.48;102329.19;2103503;28;20078;-76
2022/12/26 08:29:28;;;;;;;5.30;1.98;;;;;;;19.56;87.49;102322.13;2095166;28;20036;-76